Time;durP1;ratioP1;P1;durP2;ratioP2;P2;SDS_P1;SDS_P2;PMS_P1;PMS_P2;Temp;Humidity;BMP_temperature;BMP_pressure;BME280_temperature;BME280_humidity;BME280_pressure;Samples;Min_cycle;Max_cycle;Signal;HPM_P1;HPM_P2
2021/12/21 00:02:11;;;;;;;4.07;3.22;;;-0.70;99.90;;;;;;4980601;28;88575;-43
2021/12/21 00:04:37;;;;;;;8.73;3.10;;;-0.70;99.90;;;;;;4981342;28;88163;-39
2021/12/21 00:07:04;;;;;;;4.70;2.78;;;-0.70;99.90;;;;;;4980627;28;91076;-40
2021/12/21 00:09:30;;;;;;;5.83;3.13;;;-0.70;99.90;;;;;;4980609;28;89553;-38
2021/12/21 00:11:57;;;;;;;7.43;3.10;;;-0.80;99.90;;;;;;4980524;28;90167;-46
2021/12/21 00:15:21;;;;;;;8.63;3.27;;;-0.80;99.90;;;;;;4980585;28;87547;-41
2021/12/21 00:25:17;;;;;;;8.13;3.42;;;-0.90;99.90;;;;;;4973979;28;88549;-40
2021/12/21 00:27:45;;;;;;;5.10;2.80;;;-0.90;99.90;;;;;;4979544;28;90111;-43
2021/12/21 00:30:11;;;;;;;5.57;3.57;;;-0.90;99.90;;;;;;4980869;28;89719;-42
2021/12/21 00:32:37;;;;;;;5.22;2.75;;;-0.90;99.90;;;;;;4981392;28;90072;-37
2021/12/21 00:35:03;;;;;;;4.22;2.95;;;-0.90;99.90;;;;;;4980325;28;89682;-38
2021/12/21 00:37:29;;;;;;;8.43;3.42;;;-0.90;99.90;;;;;;4980472;28;90206;-45
2021/12/21 00:39:54;;;;;;;3.97;3.10;;;-0.90;99.90;;;;;;4980547;28;89863;-41
2021/12/21 00:42:20;;;;;;;6.38;3.42;;;-1.00;99.90;;;;;;4984311;28;90264;-43
2021/12/21 00:44:46;;;;;;;7.45;2.83;;;-0.90;99.90;;;;;;4983850;28;88987;-38
2021/12/21 00:47:14;;;;;;;3.72;3.10;;;-1.00;99.90;;;;;;4983656;28;90154;-38
2021/12/21 00:49:45;;;;;;;5.55;3.67;;;-1.00;99.90;;;;;;4983091;28;90469;-41
2021/12/21 00:52:10;;;;;;;4.28;2.47;;;-1.00;99.90;;;;;;4983433;28;87263;-34
2021/12/21 00:54:36;;;;;;;6.82;2.92;;;-1.00;99.90;;;;;;4984049;28;89960;-36
2021/12/21 00:57:04;;;;;;;4.93;2.92;;;-1.00;99.90;;;;;;4983645;28;90715;-35
2021/12/21 00:59:30;;;;;;;3.30;2.67;;;-1.00;99.90;;;;;;4982915;28;89656;-35
2021/12/21 01:01:56;;;;;;;10.20;3.38;;;-1.00;99.90;;;;;;4983736;28;89310;-44
2021/12/21 01:04:28;;;;;;;4.65;2.33;;;-1.00;99.90;;;;;;4983306;28;87473;-39
2021/12/21 01:07:06;;;;;;;4.30;2.80;;;-1.00;99.90;;;;;;4983579;28;90124;-43
2021/12/21 01:12:09;;;;;;;3.17;2.33;;;-1.10;99.90;;;;;;4965942;28;88571;-43
2021/12/21 01:17:09;;;;;;;3.65;3.35;;;-1.10;99.90;;;;;;4965606;28;90249;-43
2021/12/21 01:19:51;;;;;;;7.50;3.25;;;-1.10;99.90;;;;;;4983477;28;90031;-42
2021/12/21 01:22:40;;;;;;;4.65;3.05;;;-1.10;99.90;;;;;;4983292;28;88221;-40
2021/12/21 01:25:23;;;;;;;5.03;2.85;;;-1.10;99.90;;;;;;4983490;28;89539;-37
2021/12/21 01:27:59;;;;;;;3.90;2.78;;;-1.10;99.90;;;;;;4983402;28;89648;-38
2021/12/21 01:30:41;;;;;;;6.13;2.90;;;-1.10;99.90;;;;;;4982801;28;89720;-39
2021/12/21 01:33:32;;;;;;;3.75;2.20;;;-1.10;99.90;;;;;;4983833;28;89673;-43
2021/12/21 01:36:01;;;;;;;4.75;2.97;;;-1.10;99.90;;;;;;4983285;28;89726;-39
2021/12/21 01:38:38;;;;;;;6.43;2.70;;;-1.10;99.90;;;;;;4982654;28;88688;-40
2021/12/21 01:41:28;;;;;;;4.13;2.85;;;-1.20;99.90;;;;;;4982577;28;89592;-43
2021/12/21 01:51:58;;;;;;;3.47;2.13;;;-1.30;99.90;;;;;;4982665;28;89328;-40
2021/12/21 01:54:24;;;;;;;9.63;2.65;;;-1.30;99.90;;;;;;4982573;28;87940;-41
2021/12/21 01:56:49;;;;;;;2.85;2.45;;;-1.30;99.90;;;;;;4983104;28;89944;-35
2021/12/21 01:59:15;;;;;;;11.05;2.67;;;-1.30;99.90;;;;;;4983131;28;90290;-34
2021/12/21 02:01:41;;;;;;;4.07;3.17;;;-1.30;99.90;;;;;;4982409;28;89904;-40
2021/12/21 02:04:08;;;;;;;6.35;2.75;;;-1.30;99.90;;;;;;4964363;28;89680;-35
2021/12/21 02:06:34;;;;;;;7.55;2.97;;;-1.30;99.90;;;;;;4982676;28;87546;-38
2021/12/21 02:09:00;;;;;;;7.78;3.13;;;-1.30;99.90;;;;;;4982069;28;91029;-41
2021/12/21 02:11:25;;;;;;;2.92;2.50;;;-1.30;99.90;;;;;;4982642;28;89383;-41
2021/12/21 02:13:52;;;;;;;6.78;3.42;;;-1.30;99.90;;;;;;4964028;28;88939;-42
2021/12/21 02:17:21;;;;;;;8.65;2.35;;;-1.30;99.90;;;;;;4982036;28;87892;-40
2021/12/21 02:19:20;;;;;;;4.70;3.03;;;-1.30;99.90;;;;;;4970171;28;90322;-41
2021/12/21 02:21:50;;;;;;;4.32;2.80;;;-1.40;99.90;;;;;;4982496;28;89658;-36
2021/12/21 02:24:21;;;;;;;7.57;2.50;;;-1.30;99.90;;;;;;4982665;28;88121;-39
2021/12/21 02:29:34;;;;;;;11.43;2.90;;;-1.40;99.90;;;;;;4982509;28;90089;-39
2021/12/21 02:32:00;;;;;;;11.77;2.60;;;-1.40;99.90;;;;;;4982197;28;89848;-40
2021/12/21 02:34:26;;;;;;;4.30;2.20;;;-1.40;99.90;;;;;;4981789;28;88823;-41
2021/12/21 02:36:54;;;;;;;6.43;3.35;;;-1.40;99.90;;;;;;4982177;28;88168;-40
2021/12/21 02:39:21;;;;;;;9.45;2.63;;;-1.40;99.90;;;;;;4981893;28;90191;-36
2021/12/21 02:41:47;;;;;;;5.55;2.80;;;-1.50;99.90;;;;;;4981472;28;90278;-38
2021/12/21 02:47:00;;;;;;;8.63;3.47;;;-1.50;99.90;;;;;;4959891;28;89154;-42
2021/12/21 02:49:26;;;;;;;5.80;3.33;;;-1.50;99.90;;;;;;4962113;28;89160;-35
2021/12/21 02:51:52;;;;;;;4.78;2.25;;;-1.50;99.90;;;;;;4959933;28;89508;-37
2021/12/21 02:54:19;;;;;;;3.13;2.75;;;-1.50;99.90;;;;;;4962170;28;88092;-39
2021/12/21 02:56:46;;;;;;;6.72;3.08;;;-1.50;99.90;;;;;;4961199;28;87569;-38
2021/12/21 02:59:12;;;;;;;4.18;2.67;;;-1.50;99.90;;;;;;4962119;28;90466;-40
2021/12/21 03:01:37;;;;;;;9.57;2.95;;;-1.60;99.90;;;;;;4962048;28;89402;-40
2021/12/21 03:04:04;;;;;;;8.45;2.30;;;-1.60;99.90;;;;;;4960897;28;87764;-39
2021/12/21 03:07:01;;;;;;;5.45;2.83;;;-1.60;99.90;;;;;;4961562;28;88702;-43
2021/12/21 03:09:38;;;;;;;4.63;2.90;;;-1.50;99.90;;;;;;4961902;28;90299;-42
2021/12/21 03:14:37;;;;;;;4.63;3.22;;;-1.50;99.90;;;;;;4981548;28;88918;-39
2021/12/21 03:17:03;;;;;;;3.72;2.70;;;-1.60;99.90;;;;;;4981600;28;89425;-39
2021/12/21 03:19:29;;;;;;;7.50;2.83;;;-1.60;99.90;;;;;;4981513;28;90284;-35
2021/12/21 03:21:54;;;;;;;5.78;3.35;;;-1.60;99.90;;;;;;4981819;28;89170;-35
2021/12/21 03:24:20;;;;;;;10.95;2.45;;;-1.60;99.90;;;;;;4982725;28;88401;-37
2021/12/21 03:26:46;;;;;;;4.18;2.30;;;-1.60;99.90;;;;;;4962940;28;87268;-36
2021/12/21 03:29:12;;;;;;;5.00;2.90;;;-1.60;99.90;;;;;;4981505;28;89800;-40
2021/12/21 03:31:37;;;;;;;5.13;2.75;;;-1.60;99.90;;;;;;4980679;28;88180;-39
2021/12/21 03:34:04;;;;;;;5.88;2.50;;;-1.60;99.90;;;;;;4981383;28;89457;-42
2021/12/21 03:36:30;;;;;;;5.32;2.95;;;-1.60;99.90;;;;;;4981791;28;88872;-42
2021/12/21 03:39:05;;;;;;;4.05;2.88;;;-1.60;99.90;;;;;;4980552;28;88923;-37
2021/12/21 03:41:30;;;;;;;6.93;2.95;;;-1.60;99.90;;;;;;4981516;28;89740;-36
2021/12/21 03:44:00;;;;;;;7.45;3.60;;;-1.60;99.90;;;;;;4980884;28;89328;-36
2021/12/21 03:46:25;;;;;;;4.32;3.42;;;-1.70;99.90;;;;;;4962298;28;88366;-38
2021/12/21 03:48:51;;;;;;;6.63;2.85;;;-1.70;99.90;;;;;;4981318;28;90502;-42
2021/12/21 03:51:19;;;;;;;9.02;2.97;;;-1.70;99.90;;;;;;4980786;28;89147;-38
2021/12/21 03:53:46;;;;;;;5.75;3.45;;;-1.70;99.90;;;;;;4980513;28;87439;-35
2021/12/21 03:56:39;;;;;;;7.60;3.63;;;-1.70;99.90;;;;;;4981049;28;89408;-41
2021/12/21 03:58:58;;;;;;;6.47;3.30;;;-1.70;99.90;;;;;;4980371;28;89209;-35
2021/12/21 04:01:23;;;;;;;6.68;3.47;;;-1.80;99.90;;;;;;4980284;28;89493;-43
2021/12/21 04:03:49;;;;;;;8.07;3.42;;;-1.70;99.90;;;;;;4980553;28;89421;-42
2021/12/21 04:06:15;;;;;;;9.68;3.42;;;-1.80;99.90;;;;;;4980636;28;88427;-42
2021/12/21 04:08:40;;;;;;;7.35;3.30;;;-1.80;99.90;;;;;;4980933;28;88905;-42
2021/12/21 04:11:06;;;;;;;5.18;3.10;;;-1.80;99.90;;;;;;4981039;28;89422;-43
2021/12/21 04:13:32;;;;;;;5.75;3.20;;;-1.80;99.90;;;;;;4980840;28;89461;-36
2021/12/21 04:16:00;;;;;;;10.43;3.78;;;-1.80;99.90;;;;;;4983194;28;87652;-40
2021/12/21 04:18:26;;;;;;;;;;;-1.80;99.90;;;;;;4984899;28;89224;-38
2021/12/21 04:20:51;;;;;;;6.10;4.03;;;-1.90;99.90;;;;;;4982863;28;90366;-38
2021/12/21 04:23:18;;;;;;;7.88;4.28;;;-1.90;99.90;;;;;;4982325;28;87418;-40
2021/12/21 04:25:44;;;;;;;4.80;3.40;;;-1.90;99.90;;;;;;4982337;28;89303;-42
2021/12/21 04:28:10;;;;;;;8.38;4.68;;;-1.90;99.90;;;;;;4980538;28;90737;-36
2021/12/21 04:30:36;;;;;;;7.75;4.78;;;-1.90;99.90;;;;;;4982053;28;89466;-36
2021/12/21 04:33:02;;;;;;;7.72;4.50;;;-1.90;99.90;;;;;;4979426;28;88737;-35
2021/12/21 04:35:27;;;;;;;6.78;4.68;;;-1.90;99.90;;;;;;4983246;28;88841;-39
2021/12/21 04:37:58;;;;;;;6.57;4.85;;;-1.90;99.90;;;;;;4982699;28;89357;-38
2021/12/21 04:40:38;;;;;;;10.32;4.20;;;-1.90;99.90;;;;;;4988699;28;89829;-41
2021/12/21 04:43:04;;;;;;;14.90;4.88;;;-2.00;99.90;;;;;;4963957;28;87533;-38
2021/12/21 04:45:30;;;;;;;7.82;4.05;;;-2.00;99.90;;;;;;4963297;28;88620;-42
2021/12/21 04:47:56;;;;;;;9.05;4.18;;;-2.00;99.90;;;;;;4963912;28;90350;-38
2021/12/21 04:50:21;;;;;;;7.20;4.22;;;-2.00;99.90;;;;;;4946901;28;90552;-37
2021/12/21 04:52:47;;;;;;;7.95;4.15;;;-2.00;99.90;;;;;;4963463;28;87958;-42
2021/12/21 04:55:13;;;;;;;9.65;4.47;;;-2.00;99.90;;;;;;4964032;28;87587;-42
2021/12/21 04:57:40;;;;;;;8.60;4.63;;;-2.00;99.90;;;;;;4977154;28;90842;-41
2021/12/21 05:00:07;;;;;;;9.07;4.30;;;-2.00;99.90;;;;;;5002980;28;89676;-44
2021/12/21 05:02:33;;;;;;;12.85;4.25;;;-2.10;99.90;;;;;;4993657;28;89297;-42
2021/12/21 05:04:58;;;;;;;6.53;4.03;;;-2.10;99.90;;;;;;4982191;28;87870;-42
2021/12/21 05:07:27;;;;;;;7.30;4.72;;;-2.10;99.90;;;;;;4981942;28;89799;-42
2021/12/21 05:09:57;;;;;;;7.88;5.13;;;-2.10;99.90;;;;;;4980830;28;89342;-41
2021/12/21 05:12:23;;;;;;;6.38;4.70;;;-2.10;99.90;;;;;;4981121;28;88626;-38
2021/12/21 05:14:49;;;;;;;7.53;5.30;;;-2.10;99.90;;;;;;4980586;28;88366;-42
2021/12/21 05:17:14;;;;;;;12.57;5.93;;;-2.10;99.90;;;;;;4980837;28;90240;-41
2021/12/21 05:19:40;;;;;;;7.38;5.93;;;-2.10;99.90;;;;;;4980903;28;89728;-37
2021/12/21 05:22:06;;;;;;;7.80;4.90;;;-2.10;99.90;;;;;;4980245;28;89545;-45
2021/12/21 05:24:31;;;;;;;6.72;4.82;;;-2.20;99.90;;;;;;4981137;28;89696;-43
2021/12/21 05:26:57;;;;;;;13.82;5.90;;;-2.20;99.90;;;;;;4981590;28;90922;-42
2021/12/21 05:29:23;;;;;;;10.10;5.75;;;-2.20;99.90;;;;;;4983100;28;89501;-42
2021/12/21 05:31:49;;;;;;;11.65;4.85;;;-2.20;99.90;;;;;;4982421;28;87723;-40
2021/12/21 05:34:15;;;;;;;9.20;5.15;;;-2.20;99.90;;;;;;4981981;28;88531;-38
2021/12/21 05:36:41;;;;;;;7.53;6.40;;;-2.20;99.90;;;;;;4980874;28;90721;-37
2021/12/21 05:39:15;;;;;;;7.43;5.25;;;-2.20;99.90;;;;;;4981615;28;89785;-37
2021/12/21 05:41:52;;;;;;;7.03;5.93;;;-2.20;99.90;;;;;;4982411;28;89604;-44
2021/12/21 05:44:23;;;;;;;8.20;5.53;;;-2.20;99.90;;;;;;4982545;28;88849;-34
2021/12/21 05:46:50;;;;;;;6.90;5.75;;;-2.20;99.90;;;;;;4982227;28;90186;-41
2021/12/21 05:49:16;;;;;;;7.70;7.00;;;-2.10;99.90;;;;;;4982709;28;89614;-35
2021/12/21 05:51:42;;;;;;;8.57;6.32;;;-2.10;99.90;;;;;;4982872;28;89294;-37
2021/12/21 05:54:08;;;;;;;9.63;7.40;;;-2.10;99.90;;;;;;4982737;28;87879;-40
2021/12/21 05:56:34;;;;;;;11.25;7.10;;;-2.10;99.90;;;;;;4982165;28;90550;-41
2021/12/21 05:59:02;;;;;;;10.00;7.57;;;-2.10;99.90;;;;;;4982192;28;89751;-37
2021/12/21 06:01:30;;;;;;;10.45;7.53;;;-2.10;99.90;;;;;;4983769;28;87302;-34
2021/12/21 06:03:55;;;;;;;13.23;7.50;;;-2.10;99.90;;;;;;4982535;28;88085;-40
2021/12/21 06:06:21;;;;;;;8.00;7.20;;;-2.10;99.90;;;;;;4982274;28;90482;-37
2021/12/21 06:08:48;;;;;;;10.95;7.78;;;-2.20;99.90;;;;;;4982416;28;88024;-36
2021/12/21 06:11:15;;;;;;;7.22;6.25;;;-2.20;99.90;;;;;;4982307;28;88805;-40
2021/12/21 06:25:21;;;;;;;14.38;8.43;;;-2.50;99.90;;;;;;4982312;28;89781;-42
2021/12/21 06:27:13;;;;;;;10.38;7.57;;;-2.50;99.90;;;;;;4981735;28;90906;-43
2021/12/21 06:29:39;;;;;;;10.48;7.15;;;-2.50;99.90;;;;;;4982224;28;89458;-35
2021/12/21 06:32:05;;;;;;;7.75;7.05;;;-2.50;99.90;;;;;;4981019;28;88347;-44
2021/12/21 06:34:31;;;;;;;12.95;7.68;;;-2.50;99.90;;;;;;4982856;28;89279;-33
2021/12/21 06:36:56;;;;;;;8.43;7.55;;;-2.50;99.90;;;;;;4981644;28;90105;-41
2021/12/21 06:39:22;;;;;;;7.95;7.28;;;-2.60;99.90;;;;;;4981469;28;89426;-40
2021/12/21 06:41:48;;;;;;;7.05;6.45;;;-2.60;99.90;;;;;;4982778;28;89072;-34
2021/12/21 06:44:15;;;;;;;13.20;6.88;;;-2.60;99.90;;;;;;4981628;28;87300;-43
2021/12/21 06:51:52;;;;;;;7.85;6.68;;;-2.60;99.90;;;;;;4981914;28;88335;-40
2021/12/21 06:54:19;;;;;;;14.18;6.47;;;-2.50;99.90;;;;;;4982322;28;87870;-36
2021/12/21 06:56:45;;;;;;;9.25;6.60;;;-2.50;99.90;;;;;;4981611;28;90357;-39
2021/12/21 06:59:10;;;;;;;8.88;7.28;;;-2.50;99.90;;;;;;4981464;28;89621;-39
2021/12/21 07:01:37;;;;;;;9.85;8.35;;;-2.50;99.90;;;;;;4982666;28;88255;-39
2021/12/21 07:04:03;;;;;;;14.57;7.95;;;-2.40;99.90;;;;;;4981004;28;87357;-36
2021/12/21 07:06:29;;;;;;;14.45;9.32;;;-2.30;99.90;;;;;;4981561;28;90259;-43
2021/12/21 07:12:18;;;;;;;9.45;8.57;;;-2.30;99.90;;;;;;4981663;28;88412;-43
2021/12/21 07:19:40;;;;;;;7.97;7.15;;;-2.20;99.90;;;;;;4981801;28;90047;-38
2021/12/21 07:22:06;;;;;;;15.25;8.32;;;-2.10;99.90;;;;;;4981424;28;89853;-36
2021/12/21 07:24:32;;;;;;;25.45;9.05;;;-2.10;99.90;;;;;;4981928;28;88546;-40
2021/12/21 07:26:57;;;;;;;8.85;7.70;;;-2.20;99.90;;;;;;4980236;28;91133;-35
2021/12/21 07:29:23;;;;;;;9.25;8.07;;;-2.20;99.90;;;;;;4980825;28;89393;-39
2021/12/21 07:31:49;;;;;;;8.82;7.40;;;-2.20;99.90;;;;;;4964140;28;87733;-39
2021/12/21 07:34:15;;;;;;;13.20;7.70;;;-2.30;99.90;;;;;;4981111;28;89008;-35
2021/12/21 07:36:43;;;;;;;11.73;7.75;;;-2.40;99.90;;;;;;4981524;28;90246;-41
2021/12/21 07:39:10;;;;;;;7.70;6.43;;;-2.40;99.90;;;;;;4981210;28;90342;-38
2021/12/21 07:41:36;;;;;;;9.80;7.85;;;-2.50;99.90;;;;;;4980801;28;87462;-43
2021/12/21 07:44:02;;;;;;;14.43;8.32;;;-2.60;99.90;;;;;;4942797;28;87521;-40
2021/12/21 07:46:28;;;;;;;7.32;6.43;;;-2.70;99.90;;;;;;4980537;28;90312;-37
2021/12/21 07:48:54;;;;;;;13.13;8.30;;;-2.70;99.90;;;;;;4981454;28;89189;-38
2021/12/21 07:51:19;;;;;;;11.55;8.02;;;-2.70;99.90;;;;;;4984936;28;89552;-38
2021/12/21 07:53:45;;;;;;;10.55;8.95;;;-2.80;99.90;;;;;;4984185;28;87404;-42
2021/12/21 07:56:11;;;;;;;12.05;8.55;;;-2.80;99.90;;;;;;4985043;28;90365;-41
2021/12/21 07:58:37;;;;;;;10.38;8.48;;;-2.80;99.90;;;;;;4985056;28;89890;-37
2021/12/21 08:01:04;;;;;;;8.88;7.53;;;-2.70;99.90;;;;;;4984320;28;88430;-41
2021/12/21 08:03:34;;;;;;;10.90;9.20;;;-2.70;99.90;;;;;;4983812;28;88693;-38
2021/12/21 08:06:02;;;;;;;11.13;9.13;;;-2.70;99.90;;;;;;4984280;28;90241;-43
2021/12/21 08:08:29;;;;;;;10.88;9.50;;;-2.70;99.90;;;;;;4984959;28;89951;-42
2021/12/21 08:11:15;;;;;;;12.13;7.75;;;-2.80;99.90;;;;;;4984013;28;88789;-37
2021/12/21 08:13:44;;;;;;;10.63;8.32;;;-2.80;99.90;;;;;;4983667;28;87490;-39
2021/12/21 08:16:11;;;;;;;12.00;9.65;;;-2.80;99.90;;;;;;4983800;28;89086;-38
2021/12/21 08:18:36;;;;;;;11.18;9.93;;;-2.70;99.90;;;;;;4984530;28;90427;-40
2021/12/21 08:21:02;;;;;;;10.88;9.70;;;-2.70;99.90;;;;;;4983494;28;87624;-37
2021/12/21 08:23:28;;;;;;;13.32;10.02;;;-2.70;99.90;;;;;;4984305;28;89776;-45
2021/12/21 08:25:57;;;;;;;13.02;9.98;;;-2.60;99.90;;;;;;4983408;28;89118;-38
2021/12/21 08:28:23;;;;;;;14.70;9.63;;;-2.60;99.90;;;;;;4983055;28;90226;-39
2021/12/21 08:30:49;;;;;;;12.32;10.55;;;-2.60;99.90;;;;;;4983994;28;87340;-38
2021/12/21 08:33:15;;;;;;;11.35;9.88;;;-2.50;99.90;;;;;;4983583;28;88917;-38
2021/12/21 08:35:41;;;;;;;13.48;8.70;;;-2.50;99.90;;;;;;4983500;28;90275;-37
2021/12/21 08:38:13;;;;;;;13.73;8.52;;;-2.50;99.90;;;;;;4983267;28;89400;-41
2021/12/21 08:40:40;;;;;;;8.95;7.47;;;-2.40;99.90;;;;;;4983863;28;88122;-39
2021/12/21 08:43:12;;;;;;;10.15;8.77;;;-2.40;99.90;;;;;;4966436;28;89615;-42
2021/12/21 08:45:39;;;;;;;20.13;9.25;;;-2.40;99.90;;;;;;4982647;28;90478;-42
2021/12/21 08:48:05;;;;;;;14.82;11.50;;;-2.30;99.90;;;;;;4965121;28;89814;-39
2021/12/21 08:50:32;;;;;;;76.22;23.25;;;-2.30;99.90;;;;;;4983144;28;87477;-38
2021/12/21 08:52:58;;;;;;;31.70;23.63;;;-2.20;99.90;;;;;;4981491;28;89729;-36
2021/12/21 08:55:23;;;;;;;31.10;24.98;;;-2.10;99.90;;;;;;4981954;28;90260;-44
2021/12/21 08:57:49;;;;;;;31.35;23.80;;;-2.00;99.90;;;;;;4979895;28;88820;-36
2021/12/21 09:00:15;;;;;;;36.70;27.08;;;-1.90;99.90;;;;;;4979682;28;88422;-39
2021/12/21 09:02:41;;;;;;;35.17;27.80;;;-1.80;99.90;;;;;;4980945;28;88596;-43
2021/12/21 09:05:12;;;;;;;41.33;27.77;;;-1.70;99.90;;;;;;4980057;28;89165;-42
2021/12/21 09:07:44;;;;;;;32.45;26.38;;;-1.60;99.90;;;;;;4980020;28;89671;-37
2021/12/21 09:10:11;;;;;;;30.05;23.95;;;-1.50;99.90;;;;;;4981422;28;88007;-38
2021/12/21 09:12:38;;;;;;;27.98;20.45;;;-1.40;99.90;;;;;;4980029;28;87847;-34
2021/12/21 09:15:05;;;;;;;22.25;18.13;;;-1.30;99.90;;;;;;4979459;28;90036;-41
2021/12/21 09:17:30;;;;;;;24.88;19.45;;;-1.30;99.90;;;;;;4980371;28;90071;-43
2021/12/21 09:19:57;;;;;;;22.33;18.05;;;-1.20;99.90;;;;;;4979661;28;89008;-44
2021/12/21 09:22:23;;;;;;;19.83;17.80;;;-1.00;99.90;;;;;;4979736;28;88909;-41
2021/12/21 09:24:49;;;;;;;21.58;18.33;;;-0.80;99.90;;;;;;4979748;28;92521;-39
2021/12/21 09:27:16;;;;;;;20.17;18.17;;;-0.60;99.90;;;;;;4979566;28;89676;-36
2021/12/21 09:29:42;;;;;;;20.88;18.20;;;-0.40;99.90;;;;;;4980335;28;87479;-37
2021/12/21 09:32:13;;;;;;;23.75;18.70;;;-0.20;99.90;;;;;;4962090;28;89001;-41
2021/12/21 09:34:40;;;;;;;26.40;18.63;;;0.00;99.90;;;;;;4980104;28;90231;-36
2021/12/21 09:37:08;;;;;;;36.05;20.83;;;0.20;99.90;;;;;;4961561;28;89918;-35
2021/12/21 09:39:34;;;;;;;30.92;21.88;;;0.30;99.90;;;;;;4979952;28;89500;-35
2021/12/21 09:41:59;;;;;;;27.88;22.80;;;0.50;99.90;;;;;;4979414;28;88899;-45
2021/12/21 09:44:25;;;;;;;26.63;23.40;;;0.60;99.90;;;;;;4979389;28;90255;-39
2021/12/21 09:46:51;;;;;;;26.05;23.30;;;0.80;99.90;;;;;;4979032;28;89602;-40
2021/12/21 09:49:17;;;;;;;29.85;25.48;;;0.90;99.90;;;;;;4979893;28;89533;-39
2021/12/21 09:51:43;;;;;;;29.33;25.33;;;1.00;99.90;;;;;;4979518;28;87527;-39
2021/12/21 09:54:09;;;;;;;28.83;25.83;;;1.00;99.90;;;;;;4979304;28;90164;-43
2021/12/21 09:56:34;;;;;;;27.45;24.70;;;1.10;99.90;;;;;;4979493;28;88428;-37
2021/12/21 09:59:01;;;;;;;30.55;26.58;;;1.10;99.90;;;;;;4979045;28;88979;-35
2021/12/21 10:01:27;;;;;;;31.02;25.83;;;1.10;99.90;;;;;;4980197;28;89209;-41
2021/12/21 10:03:53;;;;;;;30.17;27.05;;;1.10;99.90;;;;;;4979038;28;88659;-42
2021/12/21 10:06:18;;;;;;;31.13;26.45;;;1.00;99.90;;;;;;4979030;28;89563;-36
2021/12/21 10:08:44;;;;;;;31.60;28.10;;;1.00;99.90;;;;;;4979363;28;88916;-41
2021/12/21 10:11:19;;;;;;;30.27;24.77;;;1.10;99.90;;;;;;4979651;28;87531;-37
2021/12/21 10:13:45;;;;;;;28.33;25.40;;;1.10;99.90;;;;;;4977279;28;91019;-39
2021/12/21 10:16:10;;;;;;;28.83;25.52;;;1.10;99.90;;;;;;4979269;28;89611;-42
2021/12/21 10:18:41;;;;;;;34.75;25.45;;;1.10;99.90;;;;;;4972412;28;88542;-42
2021/12/21 10:21:09;;;;;;;35.50;26.73;;;1.20;99.90;;;;;;4961908;28;89727;-36
2021/12/21 10:23:37;;;;;;;29.02;25.95;;;1.20;99.90;;;;;;4978700;28;90219;-37
2021/12/21 10:26:10;;;;;;;30.20;27.00;;;1.30;99.90;;;;;;4971273;28;89381;-36
2021/12/21 10:28:42;;;;;;;33.05;26.85;;;1.40;99.90;;;;;;4959333;28;87395;-41
2021/12/21 10:31:29;;;;;;;29.55;26.10;;;1.40;99.90;;;;;;4959709;28;88912;-37
2021/12/21 10:33:57;;;;;;;30.67;27.17;;;1.50;99.90;;;;;;4958908;28;89167;-38
2021/12/21 10:36:25;;;;;;;30.13;27.20;;;1.60;99.90;;;;;;4959647;28;90499;-43
2021/12/21 10:38:57;;;;;;;33.40;27.27;;;1.70;99.90;;;;;;4941334;28;90370;-42
2021/12/21 10:41:37;;;;;;;28.45;25.50;;;1.70;99.90;;;;;;4941509;28;89833;-44
2021/12/21 10:44:06;;;;;;;32.95;26.58;;;1.80;99.90;;;;;;4959137;28;90271;-34
2021/12/21 10:46:40;;;;;;;29.70;24.35;;;1.90;99.90;;;;;;4958509;28;89406;-39
2021/12/21 10:49:10;;;;;;;29.88;25.10;;;1.90;99.90;;;;;;4959148;28;89526;-36
2021/12/21 10:51:37;;;;;;;30.35;25.00;;;2.00;99.90;;;;;;4959446;28;88345;-40
2021/12/21 10:54:03;;;;;;;33.45;25.95;;;2.00;99.90;;;;;;4958250;28;90140;-39
2021/12/21 10:56:28;;;;;;;31.13;23.65;;;2.10;99.90;;;;;;4959641;28;90269;-36
2021/12/21 10:58:54;;;;;;;29.42;25.85;;;2.20;99.90;;;;;;4959060;28;88108;-41
2021/12/21 11:01:27;;;;;;;33.17;26.60;;;2.30;99.90;;;;;;4959421;28;88633;-40
2021/12/21 11:03:55;;;;;;;34.28;25.52;;;2.40;99.90;;;;;;4959540;28;91519;-40
2021/12/21 11:06:25;;;;;;;29.60;26.27;;;2.50;99.90;;;;;;4940116;28;89318;-42
2021/12/21 11:08:54;;;;;;;35.13;24.70;;;2.50;99.90;;;;;;4978792;28;88193;-36
2021/12/21 11:11:28;;;;;;;28.05;25.15;;;2.60;99.90;;;;;;4978390;28;88829;-40
2021/12/21 11:14:06;;;;;;;31.58;25.38;;;2.60;99.90;;;;;;4979132;28;89792;-41
2021/12/21 11:16:36;;;;;;;31.15;26.88;;;2.70;99.90;;;;;;4978477;28;89433;-37
2021/12/21 11:19:03;;;;;;;26.95;24.08;;;2.80;99.90;;;;;;4978259;28;90039;-35
2021/12/21 11:21:31;;;;;;;30.35;26.20;;;2.90;99.90;;;;;;4978185;28;87632;-36
2021/12/21 11:24:02;;;;;;;37.33;26.17;;;2.90;99.90;;;;;;4977739;28;90795;-37
2021/12/21 11:26:30;;;;;;;27.98;25.08;;;3.00;99.90;;;;;;4978379;28;89939;-39
2021/12/21 11:29:00;;;;;;;26.52;22.65;;;3.00;99.90;;;;;;4977743;28;87434;-38
2021/12/21 11:31:26;;;;;;;27.98;24.38;;;3.10;99.90;;;;;;4978055;28;88578;-35
2021/12/21 11:33:56;;;;;;;28.85;23.92;;;3.10;99.90;;;;;;4978148;28;91079;-35
2021/12/21 11:39:09;;;;;;;29.13;24.60;;;3.30;99.90;;;;;;4979320;28;89369;-35
2021/12/21 11:41:37;;;;;;;28.38;22.52;;;3.40;99.90;;;;;;4978239;28;88010;-38
2021/12/21 11:44:23;;;;;;;27.35;22.67;;;3.40;99.90;;;;;;4977515;28;89380;-38
2021/12/21 11:47:02;;;;;;;26.02;21.65;;;3.50;99.90;;;;;;4977634;28;89648;-43
2021/12/21 11:49:45;;;;;;;29.13;21.77;;;3.50;99.90;;;;;;4977936;28;89223;-40
2021/12/21 11:52:13;;;;;;;22.98;19.08;;;3.50;99.90;;;;;;4978228;28;89535;-38
2021/12/21 11:54:43;;;;;;;;;;;3.60;99.90;;;;;;4978341;28;89116;-34
2021/12/21 11:57:09;;;;;;;25.70;19.63;;;3.70;99.90;;;;;;4980041;28;89349;-38
2021/12/21 11:59:35;;;;;;;21.98;19.80;;;3.70;99.90;;;;;;4978735;28;89032;-41
2021/12/21 12:02:02;;;;;;;22.48;17.85;;;3.80;99.90;;;;;;4977424;28;87845;-40
2021/12/21 12:04:28;;;;;;;20.77;17.70;;;3.90;99.90;;;;;;4977694;28;90131;-40
2021/12/21 12:06:57;;;;;;;29.58;19.17;;;3.90;99.90;;;;;;4959213;28;89977;-38
2021/12/21 12:09:25;;;;;;;21.75;19.33;;;3.90;99.90;;;;;;4978459;28;89068;-40
2021/12/21 12:12:03;;;;;;;30.40;20.25;;;3.90;99.90;;;;;;4978337;28;87811;-36
2021/12/21 12:14:28;;;;;;;23.00;17.88;;;3.90;99.90;;;;;;4977506;28;90374;-43
2021/12/21 12:16:56;;;;;;;19.88;17.75;;;3.90;99.90;;;;;;4977622;28;89424;-39
2021/12/21 12:19:34;;;;;;;18.67;16.65;;;4.00;99.90;;;;;;4978004;28;88566;-38
2021/12/21 12:22:06;;;;;;;24.63;18.73;;;4.00;99.90;;;;;;4960388;28;87881;-39
2021/12/21 12:24:41;;;;;;;18.65;16.15;;;4.00;99.90;;;;;;4978019;28;89273;-39
2021/12/21 12:27:19;;;;;;;22.77;18.40;;;4.00;99.90;;;;;;4977676;28;88718;-37
2021/12/21 12:30:09;;;;;;;19.77;17.27;;;4.00;99.90;;;;;;4977006;28;87872;-41
2021/12/21 12:32:40;;;;;;;22.58;16.92;;;4.00;99.90;;;;;;4964119;28;87745;-37
2021/12/21 12:35:14;;;;;;;20.77;18.02;;;3.90;99.90;;;;;;4977427;28;89603;-37
2021/12/21 12:37:48;;;;;;;20.13;17.95;;;3.90;99.90;;;;;;4979494;28;89364;-39
2021/12/21 12:40:15;;;;;;;21.15;16.23;;;3.80;99.90;;;;;;4980232;28;88884;-44
2021/12/21 12:42:41;;;;;;;20.85;17.38;;;3.70;99.90;;;;;;4980016;28;88783;-41
2021/12/21 12:45:09;;;;;;;19.58;16.85;;;3.70;99.90;;;;;;4978163;28;90297;-42
2021/12/21 12:47:45;;;;;;;;;;;3.60;99.90;;;;;;4981351;28;90744;-37
2021/12/21 12:50:23;;;;;;;21.02;16.42;;;3.50;99.90;;;;;;4983685;28;88152;-37
2021/12/21 12:52:57;;;;;;;24.67;15.87;;;3.50;99.90;;;;;;4980735;28;88382;-37
2021/12/21 12:55:26;;;;;;;20.33;16.08;;;3.40;99.90;;;;;;4980298;28;90354;-42
2021/12/21 12:57:54;;;;;;;24.80;15.88;;;3.40;99.90;;;;;;4981045;28;89487;-39
2021/12/21 13:00:29;;;;;;;18.08;16.08;;;3.40;99.90;;;;;;4980629;28;89585;-44
2021/12/21 13:03:08;;;;;;;22.55;17.40;;;3.40;99.90;;;;;;4981148;28;88373;-40
2021/12/21 13:05:39;;;;;;;26.98;15.88;;;3.30;99.90;;;;;;4980225;28;91433;-34
2021/12/21 13:08:09;;;;;;;24.70;16.02;;;3.30;99.90;;;;;;4980362;28;89042;-41
2021/12/21 13:10:37;;;;;;;20.02;16.77;;;3.30;99.90;;;;;;4980733;28;88090;-38
2021/12/21 13:13:02;;;;;;;23.23;16.95;;;3.20;99.90;;;;;;4980801;28;89188;-38
2021/12/21 13:15:33;;;;;;;27.35;16.15;;;3.20;99.90;;;;;;4980663;28;90105;-40
2021/12/21 13:18:04;;;;;;;21.27;17.17;;;3.20;99.90;;;;;;4961233;28;90237;-36
2021/12/21 13:20:31;;;;;;;23.77;15.98;;;3.10;99.90;;;;;;4980584;28;88372;-38
2021/12/21 13:23:11;;;;;;;24.75;15.35;;;3.10;99.90;;;;;;4980699;28;88894;-39
2021/12/21 13:25:38;;;;;;;23.33;17.25;;;3.10;99.90;;;;;;4980338;28;90312;-43
2021/12/21 13:28:11;;;;;;;22.02;16.83;;;3.10;99.90;;;;;;4961729;28;91336;-38
2021/12/21 13:30:44;;;;;;;20.33;15.80;;;3.00;99.90;;;;;;4980542;28;87454;-36
2021/12/21 13:33:10;;;;;;;22.38;15.00;;;3.00;99.90;;;;;;4980258;28;89236;-35
2021/12/21 13:35:42;;;;;;;20.92;15.57;;;3.00;99.90;;;;;;4980342;28;89983;-44
2021/12/21 13:38:14;;;;;;;17.55;14.63;;;3.00;99.90;;;;;;4979401;28;89597;-41
2021/12/21 13:40:40;;;;;;;19.70;14.02;;;3.00;99.90;;;;;;4980394;28;87988;-40
2021/12/21 13:43:13;;;;;;;22.27;17.33;;;2.90;99.90;;;;;;4979518;28;88550;-37
2021/12/21 13:45:40;;;;;;;17.15;14.80;;;2.90;99.90;;;;;;4979100;28;91366;-40